createdAt,value
2022-12-11T00:02:17.382Z,9.30
2022-12-11T00:08:19.565Z,9.30
2022-12-11T00:14:21.619Z,9.40
2022-12-11T00:20:23.672Z,9.40
2022-12-11T00:26:26.173Z,9.50
2022-12-11T00:32:29.128Z,9.50
2022-12-11T00:38:32.477Z,9.80
2022-12-11T00:44:34.888Z,9.90
2022-12-11T00:50:37.917Z,9.90
2022-12-11T00:56:40.408Z,9.90
2022-12-11T01:02:42.575Z,9.90
2022-12-11T01:08:46.311Z,9.90
2022-12-11T01:14:48.452Z,9.90
2022-12-11T01:20:50.982Z,9.80
2022-12-11T01:26:53.158Z,9.80
2022-12-11T01:32:55.584Z,9.90
2022-12-11T01:38:58.974Z,9.90
2022-12-11T01:45:26.599Z,9.90
2022-12-11T01:51:31.873Z,9.80
2022-12-11T01:57:34.272Z,9.80
2022-12-11T02:03:36.528Z,9.80
2022-12-11T02:09:41.662Z,9.80
2022-12-11T02:16:02.773Z,9.80
2022-12-11T02:22:10.890Z,9.80
2022-12-11T02:28:18.886Z,9.80
2022-12-11T02:34:29.009Z,9.70
2022-12-11T02:40:33.189Z,9.80
2022-12-11T02:46:37.540Z,9.90
2022-12-11T02:52:41.984Z,9.90
2022-12-11T02:58:52.641Z,9.80
2022-12-11T03:04:58.034Z,9.80
2022-12-11T03:10:59.983Z,9.80
2022-12-11T03:17:17.476Z,9.80
2022-12-11T03:23:25.778Z,9.80
2022-12-11T03:29:36.958Z,9.70
2022-12-11T03:35:49.185Z,9.80
2022-12-11T03:41:52.622Z,9.80
2022-12-11T03:47:57.230Z,9.80
2022-12-11T03:54:00.205Z,9.90
2022-12-11T04:00:05.455Z,9.90
2022-12-11T04:06:13.992Z,10.00
2022-12-11T04:12:16.392Z,10.00
2022-12-11T04:18:37.236Z,10.10
2022-12-11T04:24:39.575Z,10.20
2022-12-11T04:30:41.812Z,10.20
2022-12-11T04:36:44.142Z,10.20
2022-12-11T04:42:46.634Z,10.30
2022-12-11T04:48:55.447Z,10.40
2022-12-11T04:55:19.352Z,10.40
2022-12-11T05:01:22.776Z,10.40
2022-12-11T05:07:25.210Z,10.40
2022-12-11T05:13:28.355Z,10.50
2022-12-11T05:19:30.701Z,10.50
2022-12-11T05:25:32.860Z,10.50
2022-12-11T05:31:34.987Z,10.60
2022-12-11T05:37:37.184Z,10.60
2022-12-11T05:43:39.389Z,10.40
2022-12-11T05:49:41.610Z,10.50
2022-12-11T05:55:43.851Z,10.50
2022-12-11T06:01:46.347Z,10.50
2022-12-11T06:07:48.676Z,10.50
2022-12-11T06:13:51.315Z,10.70
2022-12-11T06:20:11.190Z,10.70
2022-12-11T06:26:14.727Z,10.80
2022-12-11T06:32:17.276Z,10.90
2022-12-11T06:38:19.589Z,10.90
2022-12-11T06:44:21.810Z,11.00
2022-12-11T06:50:23.876Z,11.10
2022-12-11T06:56:26.439Z,11.20
2022-12-11T07:02:28.749Z,11.50
2022-12-11T07:08:32.298Z,11.80
2022-12-11T07:14:34.648Z,12.80
2022-12-11T07:20:37.026Z,13.50
2022-12-11T07:26:39.438Z,13.90
2022-12-11T07:32:41.938Z,14.70
2022-12-11T07:38:44.232Z,15.10
2022-12-11T07:44:46.259Z,15.20
2022-12-11T07:50:48.466Z,15.30
2022-12-11T07:56:53.678Z,15.70
2022-12-11T08:02:56.123Z,15.80
2022-12-11T08:09:00.000Z,16.90
2022-12-11T08:15:02.488Z,18.30
2022-12-11T08:21:08.540Z,20.50
2022-12-11T08:27:10.732Z,25.50
2022-12-11T08:33:13.018Z,24.10
2022-12-11T08:39:15.373Z,22.80
2022-12-11T08:45:17.502Z,22.20
2022-12-11T08:51:23.089Z,21.60
2022-12-11T08:57:25.205Z,21.10
2022-12-11T09:03:47.572Z,20.50
2022-12-11T09:09:49.893Z,20.10
2022-12-11T09:15:52.021Z,19.70
2022-12-11T09:21:54.438Z,19.30
2022-12-11T09:27:56.757Z,19.50
2022-12-11T09:34:02.087Z,19.40
2022-12-11T09:40:07.757Z,19.40
2022-12-11T09:46:13.785Z,19.20
2022-12-11T09:52:32.108Z,19.00
2022-12-11T09:58:41.158Z,18.50
2022-12-11T10:04:52.582Z,18.40
2022-12-11T10:11:27.204Z,18.00
2022-12-11T10:17:32.361Z,18.20
2022-12-11T10:23:43.715Z,18.20
2022-12-11T10:29:47.342Z,18.20
2022-12-11T10:35:53.756Z,18.30
2022-12-11T10:41:57.458Z,18.40
2022-12-11T10:48:07.736Z,18.10
2022-12-11T10:54:29.502Z,18.20
2022-12-11T11:00:38.756Z,18.90
2022-12-11T11:06:41.726Z,19.00
2022-12-11T11:12:47.967Z,18.60
2022-12-11T11:18:57.168Z,18.80
2022-12-11T11:25:00.139Z,18.90
2022-12-11T11:31:04.627Z,19.00
2022-12-11T11:37:30.554Z,19.30
2022-12-11T11:43:49.328Z,19.80
2022-12-11T11:50:03.478Z,20.50
2022-12-11T11:56:21.496Z,19.40
2022-12-11T12:02:24.093Z,18.60
2022-12-11T16:56:02.447Z,7.20
2022-12-11T17:02:04.968Z,6.80
2022-12-11T17:08:07.828Z,6.80
2022-12-11T17:14:10.437Z,6.80
2022-12-11T17:20:20.842Z,6.70
2022-12-11T17:26:25.531Z,6.60
2022-12-11T17:32:27.807Z,6.40
2022-12-11T17:38:29.925Z,6.40
2022-12-11T17:44:32.176Z,6.40
2022-12-11T17:50:34.373Z,6.40
2022-12-11T17:56:37.106Z,6.30
2022-12-11T18:02:39.733Z,6.40
2022-12-11T18:08:42.594Z,6.20
2022-12-11T18:14:44.867Z,6.10
2022-12-11T18:20:48.667Z,6.10
2022-12-11T18:26:50.728Z,6.00
2022-12-11T18:32:52.852Z,5.90
2022-12-11T18:38:59.569Z,5.70
2022-12-11T18:45:02.192Z,5.60
2022-12-11T18:51:11.780Z,5.60
2022-12-11T18:57:14.225Z,5.60
2022-12-11T19:03:16.761Z,5.60
2022-12-11T19:09:19.092Z,5.50
2022-12-11T19:15:24.004Z,5.40
2022-12-11T19:21:42.993Z,5.40
2022-12-11T19:27:47.313Z,5.50
2022-12-11T19:33:50.169Z,5.50
2022-12-11T19:39:52.392Z,5.40
2022-12-11T19:45:54.831Z,5.30
2022-12-11T19:51:57.074Z,5.30
2022-12-11T19:57:59.506Z,5.20
2022-12-11T20:04:07.332Z,5.20
2022-12-11T20:10:09.785Z,5.20
2022-12-11T20:16:13.510Z,5.20
2022-12-11T20:22:15.891Z,5.20
2022-12-11T20:28:18.622Z,5.20
2022-12-11T20:34:20.929Z,5.20
2022-12-11T20:40:23.152Z,5.00
2022-12-11T20:46:27.600Z,5.00
2022-12-11T20:52:29.830Z,5.00
2022-12-11T20:58:32.831Z,5.00
2022-12-11T21:04:41.300Z,4.90
2022-12-11T21:10:46.482Z,4.90
2022-12-11T21:16:48.863Z,5.00
2022-12-11T21:22:50.993Z,5.00
2022-12-11T21:28:53.590Z,4.90
2022-12-11T21:34:56.214Z,4.90
2022-12-11T21:40:58.348Z,4.80
2022-12-11T21:47:00.695Z,4.80
2022-12-11T21:53:02.972Z,4.80
2022-12-11T21:59:05.867Z,4.80
2022-12-11T22:05:08.705Z,4.60
2022-12-11T22:11:11.372Z,4.50
2022-12-11T22:17:13.413Z,4.50
2022-12-11T22:23:18.689Z,4.50
2022-12-11T22:29:21.010Z,4.50
2022-12-11T22:35:27.160Z,4.40
2022-12-11T22:41:32.034Z,4.30
2022-12-11T22:47:34.122Z,4.40
2022-12-11T22:53:36.849Z,4.30
2022-12-11T22:59:39.124Z,4.20
2022-12-11T23:05:41.515Z,4.10
2022-12-11T23:11:44.029Z,4.00
2022-12-11T23:17:46.522Z,3.80
2022-12-11T23:23:49.037Z,3.70
2022-12-11T23:29:51.345Z,3.60
2022-12-11T23:35:53.648Z,3.60
2022-12-11T23:41:56.252Z,3.40
2022-12-11T23:47:58.718Z,3.40
2022-12-11T23:54:05.150Z,3.30
